sensor_id;sensor_type;location;lat;lon;timestamp;pressure;altitude;pressure_sealevel;temperature;humidity
61136;BME280;47021;51.340;12.432;2023-03-31T00:03:48;99289.47;;;14.53;61.51
61136;BME280;47021;51.340;12.432;2023-03-31T00:06:19;99285.03;;;14.84;60.47
61136;BME280;47021;51.340;12.432;2023-03-31T00:08:52;99284.81;;;14.94;60.50
61136;BME280;47021;51.340;12.432;2023-03-31T00:14:02;99285.28;;;14.67;60.72
61136;BME280;47021;51.340;12.432;2023-03-31T00:19:11;99273.41;;;14.79;60.79
61136;BME280;47021;51.340;12.432;2023-03-31T00:21:37;99275.72;;;14.97;59.90
61136;BME280;47021;51.340;12.432;2023-03-31T00:24:03;99268.22;;;14.94;60.16
61136;BME280;47021;51.340;12.432;2023-03-31T00:26:42;99274.16;;;14.88;60.01
61136;BME280;47021;51.340;12.432;2023-03-31T00:31:59;99258.03;;;14.68;60.62
61136;BME280;47021;51.340;12.432;2023-03-31T00:34:25;99251.72;;;14.77;60.30
61136;BME280;47021;51.340;12.432;2023-03-31T00:36:58;99245.00;;;14.74;60.20
61136;BME280;47021;51.340;12.432;2023-03-31T00:39:30;99256.28;;;14.60;61.02
61136;BME280;47021;51.340;12.432;2023-03-31T00:42:02;99250.03;;;14.61;61.06
61136;BME280;47021;51.340;12.432;2023-03-31T00:44:28;99245.72;;;14.68;60.52
61136;BME280;47021;51.340;12.432;2023-03-31T00:49:39;99240.09;;;14.71;60.57
61136;BME280;47021;51.340;12.432;2023-03-31T00:52:11;99228.72;;;14.56;61.07
61136;BME280;47021;51.340;12.432;2023-03-31T00:57:21;99230.19;;;14.59;61.00
61136;BME280;47021;51.340;12.432;2023-03-31T00:59:52;99232.47;;;14.62;60.75
61136;BME280;47021;51.340;12.432;2023-03-31T01:02:20;99227.44;;;14.75;60.62
61136;BME280;47021;51.340;12.432;2023-03-31T01:04:49;99218.69;;;14.60;61.04
61136;BME280;47021;51.340;12.432;2023-03-31T01:07:28;99222.81;;;14.77;60.11
61136;BME280;47021;51.340;12.432;2023-03-31T01:10:00;99213.19;;;14.69;60.34
61136;BME280;47021;51.340;12.432;2023-03-31T01:12:28;99199.25;;;14.69;60.59
61136;BME280;47021;51.340;12.432;2023-03-31T01:14:54;99198.06;;;14.71;60.35
61136;BME280;47021;51.340;12.432;2023-03-31T01:17:25;99196.63;;;14.69;60.81
61136;BME280;47021;51.340;12.432;2023-03-31T01:22:57;99188.03;;;14.75;60.47
61136;BME280;47021;51.340;12.432;2023-03-31T01:36:18;99168.91;;;14.44;61.33
61136;BME280;47021;51.340;12.432;2023-03-31T01:39:20;99160.75;;;14.53;60.86
61136;BME280;47021;51.340;12.432;2023-03-31T01:47:26;99147.34;;;14.48;60.59
61136;BME280;47021;51.340;12.432;2023-03-31T01:50:04;99157.09;;;14.40;60.70
61136;BME280;47021;51.340;12.432;2023-03-31T01:52:42;99154.56;;;14.46;60.62
61136;BME280;47021;51.340;12.432;2023-03-31T02:00:58;99148.66;;;14.44;60.76
61136;BME280;47021;51.340;12.432;2023-03-31T02:03:25;99136.25;;;14.38;61.19
61136;BME280;47021;51.340;12.432;2023-03-31T02:05:53;99133.44;;;14.40;61.20
61136;BME280;47021;51.340;12.432;2023-03-31T02:08:26;99132.81;;;14.38;60.73
61136;BME280;47021;51.340;12.432;2023-03-31T02:10:56;99134.22;;;14.48;60.70
61136;BME280;47021;51.340;12.432;2023-03-31T02:13:22;99130.19;;;14.38;61.17
61136;BME280;47021;51.340;12.432;2023-03-31T02:21:23;99115.97;;;14.32;61.69
61136;BME280;47021;51.340;12.432;2023-03-31T02:24:01;99120.06;;;14.27;61.93
61136;BME280;47021;51.340;12.432;2023-03-31T02:26:37;99113.78;;;14.36;61.51
61136;BME280;47021;51.340;12.432;2023-03-31T02:34:28;99103.09;;;14.37;61.23
61136;BME280;47021;51.340;12.432;2023-03-31T02:39:44;99088.84;;;14.54;60.82
61136;BME280;47021;51.340;12.432;2023-03-31T02:42:17;99089.03;;;14.67;60.40
61136;BME280;47021;51.340;12.432;2023-03-31T02:44:50;99083.25;;;14.72;60.71
61136;BME280;47021;51.340;12.432;2023-03-31T02:47:16;99078.47;;;14.75;60.62
61136;BME280;47021;51.340;12.432;2023-03-31T02:49:55;99080.00;;;14.70;60.32
61136;BME280;47021;51.340;12.432;2023-03-31T03:00:40;99054.09;;;14.81;60.14
61136;BME280;47021;51.340;12.432;2023-03-31T03:13:58;99041.69;;;14.75;60.13
61136;BME280;47021;51.340;12.432;2023-03-31T03:16:41;99038.88;;;14.77;60.61
61136;BME280;47021;51.340;12.432;2023-03-31T03:24:30;99028.97;;;14.50;61.16
61136;BME280;47021;51.340;12.432;2023-03-31T03:29:39;99017.09;;;14.83;59.65
61136;BME280;47021;51.340;12.432;2023-03-31T03:32:05;99023.66;;;14.87;59.86
61136;BME280;47021;51.340;12.432;2023-03-31T03:34:44;99008.44;;;14.82;59.93
61136;BME280;47021;51.340;12.432;2023-03-31T03:39:38;99012.50;;;14.70;60.63
61136;BME280;47021;51.340;12.432;2023-03-31T03:42:04;99012.38;;;14.49;60.75
61136;BME280;47021;51.340;12.432;2023-03-31T03:44:29;99012.47;;;14.56;60.87
61136;BME280;47021;51.340;12.432;2023-03-31T03:47:08;99003.78;;;14.70;60.08
61136;BME280;47021;51.340;12.432;2023-03-31T03:49:33;98998.44;;;14.63;59.98
61136;BME280;47021;51.340;12.432;2023-03-31T03:52:05;99003.16;;;14.68;59.90
61136;BME280;47021;51.340;12.432;2023-03-31T03:54:31;98998.06;;;14.52;60.35
61136;BME280;47021;51.340;12.432;2023-03-31T03:56:57;98995.16;;;14.32;61.40
61136;BME280;47021;51.340;12.432;2023-03-31T03:59:31;98983.19;;;14.44;61.11
61136;BME280;47021;51.340;12.432;2023-03-31T04:01:56;98989.25;;;14.30;60.95
61136;BME280;47021;51.340;12.432;2023-03-31T04:04:23;98977.84;;;14.38;61.15
61136;BME280;47021;51.340;12.432;2023-03-31T04:06:54;98979.09;;;14.27;61.58
61136;BME280;47021;51.340;12.432;2023-03-31T04:09:26;98971.91;;;14.21;61.39
61136;BME280;47021;51.340;12.432;2023-03-31T04:12:04;98966.59;;;14.29;61.65
61136;BME280;47021;51.340;12.432;2023-03-31T04:14:29;98958.22;;;14.34;61.42
61136;BME280;47021;51.340;12.432;2023-03-31T04:17:07;98956.22;;;14.36;61.42
61136;BME280;47021;51.340;12.432;2023-03-31T04:19:32;98945.63;;;14.44;60.84
61136;BME280;47021;51.340;12.432;2023-03-31T04:24:27;98939.19;;;14.61;60.51
61136;BME280;47021;51.340;12.432;2023-03-31T04:26:53;98943.63;;;14.60;60.59
61136;BME280;47021;51.340;12.432;2023-03-31T04:29:25;98930.13;;;14.78;60.30
61136;BME280;47021;51.340;12.432;2023-03-31T04:31:51;98930.50;;;14.75;60.30
61136;BME280;47021;51.340;12.432;2023-03-31T04:34:17;98931.59;;;14.80;60.31
61136;BME280;47021;51.340;12.432;2023-03-31T04:36:43;98923.31;;;14.83;60.09
61136;BME280;47021;51.340;12.432;2023-03-31T04:39:10;98922.19;;;14.93;59.61
61136;BME280;47021;51.340;12.432;2023-03-31T04:41:36;98916.50;;;14.89;60.10
61136;BME280;47021;51.340;12.432;2023-03-31T04:44:14;98912.31;;;14.95;59.48
61136;BME280;47021;51.340;12.432;2023-03-31T04:52:28;98895.75;;;14.94;59.65
61136;BME280;47021;51.340;12.432;2023-03-31T17:49:05;98260.53;;;15.53;58.75
61136;BME280;47021;51.340;12.432;2023-03-31T17:51:31;98258.69;;;15.61;58.70
61136;BME280;47021;51.340;12.432;2023-03-31T17:56:52;98273.22;;;15.63;58.42
61136;BME280;47021;51.340;12.432;2023-03-31T18:05:08;98274.47;;;15.67;58.38
61136;BME280;47021;51.340;12.432;2023-03-31T18:07:34;98282.16;;;15.69;58.40
61136;BME280;47021;51.340;12.432;2023-03-31T18:10:12;98282.97;;;15.69;58.51
61136;BME280;47021;51.340;12.432;2023-03-31T18:12:37;98287.03;;;15.65;58.33
61136;BME280;47021;51.340;12.432;2023-03-31T18:15:10;98281.75;;;15.32;59.47
61136;BME280;47021;51.340;12.432;2023-03-31T18:17:35;98289.22;;;15.29;59.83
61136;BME280;47021;51.340;12.432;2023-03-31T18:20:00;98289.41;;;15.08;60.79
61136;BME280;47021;51.340;12.432;2023-03-31T18:22:28;98290.19;;;14.75;61.75
61136;BME280;47021;51.340;12.432;2023-03-31T18:24:54;98286.78;;;15.21;60.31
61136;BME280;47021;51.340;12.432;2023-03-31T18:27:21;98295.28;;;15.03;60.90
61136;BME280;47021;51.340;12.432;2023-03-31T18:29:46;98297.91;;;15.16;60.93
61136;BME280;47021;51.340;12.432;2023-03-31T18:32:12;98285.97;;;15.20;60.79
61136;BME280;47021;51.340;12.432;2023-03-31T18:34:38;98295.09;;;15.37;60.08
61136;BME280;47021;51.340;12.432;2023-03-31T18:37:03;98290.03;;;15.29;60.85
61136;BME280;47021;51.340;12.432;2023-03-31T18:39:31;98299.94;;;15.27;60.74
61136;BME280;47021;51.340;12.432;2023-03-31T18:42:02;98306.00;;;15.34;61.10
61136;BME280;47021;51.340;12.432;2023-03-31T18:44:28;98292.50;;;15.50;60.82
61136;BME280;47021;51.340;12.432;2023-03-31T18:46:56;98297.31;;;15.34;61.42
61136;BME280;47021;51.340;12.432;2023-03-31T18:49:23;98305.19;;;15.40;61.01
61136;BME280;47021;51.340;12.432;2023-03-31T18:51:48;98303.00;;;15.44;61.38
61136;BME280;47021;51.340;12.432;2023-03-31T18:54:14;98305.84;;;15.49;61.07
61136;BME280;47021;51.340;12.432;2023-03-31T18:56:39;98309.47;;;15.54;60.89
61136;BME280;47021;51.340;12.432;2023-03-31T18:59:12;98305.00;;;15.42;61.15
61136;BME280;47021;51.340;12.432;2023-03-31T19:01:39;98307.28;;;15.51;61.26
61136;BME280;47021;51.340;12.432;2023-03-31T19:04:05;98311.94;;;15.56;61.20
61136;BME280;47021;51.340;12.432;2023-03-31T19:06:31;98304.66;;;15.51;61.17
61136;BME280;47021;51.340;12.432;2023-03-31T19:08:58;98302.19;;;15.57;61.28
61136;BME280;47021;51.340;12.432;2023-03-31T19:11:31;98300.16;;;15.52;61.28
61136;BME280;47021;51.340;12.432;2023-03-31T19:13:58;98304.22;;;15.48;61.19
61136;BME280;47021;51.340;12.432;2023-03-31T19:16:31;98297.72;;;15.37;61.63
61136;BME280;47021;51.340;12.432;2023-03-31T19:19:03;98296.31;;;15.35;61.64
61136;BME280;47021;51.340;12.432;2023-03-31T19:21:28;98300.38;;;15.31;62.14
61136;BME280;47021;51.340;12.432;2023-03-31T19:24:11;98301.38;;;15.23;62.18
61136;BME280;47021;51.340;12.432;2023-03-31T19:26:38;98303.16;;;15.10;63.14
61136;BME280;47021;51.340;12.432;2023-03-31T19:29:10;98300.31;;;15.05;62.81
61136;BME280;47021;51.340;12.432;2023-03-31T19:31:37;98296.69;;;15.06;62.76
61136;BME280;47021;51.340;12.432;2023-03-31T19:34:05;98297.47;;;14.80;63.44
61136;BME280;47021;51.340;12.432;2023-03-31T19:36:33;98301.47;;;14.76;63.78
61136;BME280;47021;51.340;12.432;2023-03-31T19:39:00;98300.59;;;14.56;64.22
61136;BME280;47021;51.340;12.432;2023-03-31T19:41:26;98293.75;;;14.61;64.17
61136;BME280;47021;51.340;12.432;2023-03-31T19:43:51;98288.97;;;14.78;63.23
61136;BME280;47021;51.340;12.432;2023-03-31T19:46:18;98306.53;;;14.71;63.51
61136;BME280;47021;51.340;12.432;2023-03-31T19:48:44;98302.88;;;14.72;63.46
61136;BME280;47021;51.340;12.432;2023-03-31T19:51:20;98302.94;;;14.85;62.85
61136;BME280;47021;51.340;12.432;2023-03-31T19:53:46;98288.97;;;14.84;63.07
61136;BME280;47021;51.340;12.432;2023-03-31T19:56:13;98284.09;;;14.75;62.98
61136;BME280;47021;51.340;12.432;2023-03-31T19:58:39;98292.19;;;14.80;62.88
61136;BME280;47021;51.340;12.432;2023-03-31T20:01:15;98287.16;;;14.85;62.73
61136;BME280;47021;51.340;12.432;2023-03-31T20:03:43;98286.97;;;14.87;62.48
61136;BME280;47021;51.340;12.432;2023-03-31T20:06:23;98286.53;;;14.76;62.79
61136;BME280;47021;51.340;12.432;2023-03-31T20:08:54;98286.72;;;14.75;63.31
61136;BME280;47021;51.340;12.432;2023-03-31T20:11:34;98299.66;;;14.76;63.06
61136;BME280;47021;51.340;12.432;2023-03-31T20:14:05;98294.22;;;14.78;63.08
61136;BME280;47021;51.340;12.432;2023-03-31T20:16:30;98295.81;;;14.79;63.05
61136;BME280;47021;51.340;12.432;2023-03-31T20:19:03;98295.41;;;14.69;63.28
61136;BME280;47021;51.340;12.432;2023-03-31T20:21:30;98301.44;;;14.63;63.26
61136;BME280;47021;51.340;12.432;2023-03-31T20:23:56;98292.59;;;14.77;63.14
61136;BME280;47021;51.340;12.432;2023-03-31T20:29:05;98300.06;;;14.73;63.81
61136;BME280;47021;51.340;12.432;2023-03-31T20:31:32;98298.00;;;14.62;63.43
61136;BME280;47021;51.340;12.432;2023-03-31T20:34:04;98298.69;;;14.91;62.54
61136;BME280;47021;51.340;12.432;2023-03-31T20:36:30;98301.91;;;14.86;63.33
61136;BME280;47021;51.340;12.432;2023-03-31T20:39:02;98303.94;;;14.97;62.94
61136;BME280;47021;51.340;12.432;2023-03-31T20:44:10;98303.56;;;14.94;62.68
61136;BME280;47021;51.340;12.432;2023-03-31T20:49:11;98294.25;;;14.91;62.84
61136;BME280;47021;51.340;12.432;2023-03-31T20:51:50;98297.84;;;14.83;63.07
61136;BME280;47021;51.340;12.432;2023-03-31T20:54:15;98297.84;;;14.77;63.02
61136;BME280;47021;51.340;12.432;2023-03-31T20:56:46;98303.06;;;14.64;63.84
61136;BME280;47021;51.340;12.432;2023-03-31T21:02:01;98307.28;;;14.58;63.52
61136;BME280;47021;51.340;12.432;2023-03-31T21:04:27;98311.38;;;14.74;63.36
61136;BME280;47021;51.340;12.432;2023-03-31T21:09:36;98308.53;;;14.28;64.05
61136;BME280;47021;51.340;12.432;2023-03-31T21:12:07;98313.44;;;14.31;64.68
61136;BME280;47021;51.340;12.432;2023-03-31T21:14:40;98312.72;;;14.44;64.47
61136;BME280;47021;51.340;12.432;2023-03-31T21:17:11;98305.00;;;14.42;64.15
61136;BME280;47021;51.340;12.432;2023-03-31T21:19:36;98312.91;;;14.49;64.11
61136;BME280;47021;51.340;12.432;2023-03-31T21:22:02;98311.13;;;14.56;63.75
61136;BME280;47021;51.340;12.432;2023-03-31T21:24:42;98312.75;;;14.57;63.87
61136;BME280;47021;51.340;12.432;2023-03-31T21:27:07;98322.31;;;14.30;64.57
61136;BME280;47021;51.340;12.432;2023-03-31T21:29:39;98317.13;;;14.37;64.66
61136;BME280;47021;51.340;12.432;2023-03-31T21:32:11;98315.97;;;14.52;64.46
61136;BME280;47021;51.340;12.432;2023-03-31T21:34:36;98316.97;;;14.51;64.08
61136;BME280;47021;51.340;12.432;2023-03-31T21:37:02;98322.03;;;14.53;64.35
61136;BME280;47021;51.340;12.432;2023-03-31T21:39:43;98321.25;;;14.65;63.81
61136;BME280;47021;51.340;12.432;2023-03-31T21:42:08;98319.44;;;14.59;63.73
61136;BME280;47021;51.340;12.432;2023-03-31T21:44:33;98322.28;;;14.71;63.98
61136;BME280;47021;51.340;12.432;2023-03-31T21:46:58;98320.06;;;14.74;63.82
61136;BME280;47021;51.340;12.432;2023-03-31T21:49:24;98316.84;;;14.79;63.16
61136;BME280;47021;51.340;12.432;2023-03-31T21:51:51;98320.69;;;14.83;63.32
61136;BME280;47021;51.340;12.432;2023-03-31T21:54:18;98314.66;;;14.82;63.33
61136;BME280;47021;51.340;12.432;2023-03-31T21:56:52;98324.13;;;14.83;63.33
61136;BME280;47021;51.340;12.432;2023-03-31T21:59:24;98316.84;;;14.79;63.26
61136;BME280;47021;51.340;12.432;2023-03-31T22:01:55;98327.56;;;14.71;63.94
61136;BME280;47021;51.340;12.432;2023-03-31T22:04:22;98312.78;;;14.76;63.92
61136;BME280;47021;51.340;12.432;2023-03-31T22:12:01;98322.47;;;14.69;63.99
61136;BME280;47021;51.340;12.432;2023-03-31T22:14:26;98320.88;;;14.68;64.05
61136;BME280;47021;51.340;12.432;2023-03-31T22:16:53;98320.06;;;14.68;63.45
61136;BME280;47021;51.340;12.432;2023-03-31T22:19:26;98324.94;;;14.77;63.13
61136;BME280;47021;51.340;12.432;2023-03-31T22:21:52;98317.41;;;14.61;63.35
61136;BME280;47021;51.340;12.432;2023-03-31T22:24:18;98320.44;;;14.65;63.25
61136;BME280;47021;51.340;12.432;2023-03-31T22:26:50;98330.84;;;14.39;63.98
61136;BME280;47021;51.340;12.432;2023-03-31T22:29:15;98328.50;;;14.57;63.69
61136;BME280;47021;51.340;12.432;2023-03-31T22:31:42;98325.91;;;14.70;63.00
61136;BME280;47021;51.340;12.432;2023-03-31T22:34:21;98324.91;;;14.64;63.35
61136;BME280;47021;51.340;12.432;2023-03-31T22:36:46;98330.34;;;14.63;63.39
61136;BME280;47021;51.340;12.432;2023-03-31T22:39:18;98330.53;;;14.55;63.37
61136;BME280;47021;51.340;12.432;2023-03-31T22:41:51;98330.53;;;14.21;64.56
61136;BME280;47021;51.340;12.432;2023-03-31T22:44:17;98327.06;;;14.48;63.62
61136;BME280;47021;51.340;12.432;2023-03-31T22:46:43;98334.13;;;14.13;64.74
61136;BME280;47021;51.340;12.432;2023-03-31T22:51:52;98337.06;;;14.31;64.23
61136;BME280;47021;51.340;12.432;2023-03-31T22:54:25;98329.69;;;14.48;64.01
61136;BME280;47021;51.340;12.432;2023-03-31T22:59:23;98334.31;;;14.46;64.34
61136;BME280;47021;51.340;12.432;2023-03-31T23:02:00;98336.63;;;14.28;64.62
61136;BME280;47021;51.340;12.432;2023-03-31T23:07:17;98340.75;;;14.37;64.47
61136;BME280;47021;51.340;12.432;2023-03-31T23:09:55;98333.00;;;14.29;64.93
61136;BME280;47021;51.340;12.432;2023-03-31T23:12:26;98336.44;;;14.29;64.79
61136;BME280;47021;51.340;12.432;2023-03-31T23:14:52;98333.75;;;14.16;65.26
61136;BME280;47021;51.340;12.432;2023-03-31T23:20:00;98331.69;;;14.39;64.48
61136;BME280;47021;51.340;12.432;2023-03-31T23:22:32;98338.56;;;14.12;65.09
61136;BME280;47021;51.340;12.432;2023-03-31T23:25:03;98329.53;;;14.28;64.99
61136;BME280;47021;51.340;12.432;2023-03-31T23:27:31;98333.00;;;14.29;64.91
61136;BME280;47021;51.340;12.432;2023-03-31T23:29:58;98336.50;;;14.42;64.21
61136;BME280;47021;51.340;12.432;2023-03-31T23:32:29;98337.72;;;14.40;64.43
61136;BME280;47021;51.340;12.432;2023-03-31T23:35:12;98338.97;;;14.44;64.32
61136;BME280;47021;51.340;12.432;2023-03-31T23:37:38;98337.72;;;14.40;64.66
61136;BME280;47021;51.340;12.432;2023-03-31T23:40:10;98331.91;;;14.51;64.06
61136;BME280;47021;51.340;12.432;2023-03-31T23:42:38;98336.88;;;14.33;64.25
61136;BME280;47021;51.340;12.432;2023-03-31T23:47:50;98333.50;;;14.45;64.47
61136;BME280;47021;51.340;12.432;2023-03-31T23:50:17;98331.88;;;14.44;64.36
61136;BME280;47021;51.340;12.432;2023-03-31T23:52:56;98339.13;;;14.42;64.68
61136;BME280;47021;51.340;12.432;2023-03-31T23:55:21;98329.28;;;14.51;64.29
61136;BME280;47021;51.340;12.432;2023-03-31T23:57:54;98334.38;;;14.59;63.98
